createdAt,value
2017-11-18T00:01:47.098Z,101056.66
2017-11-18T00:04:17.052Z,101064.61
2017-11-18T00:06:46.221Z,101066.35
2017-11-18T00:09:16.286Z,101065.56
2017-11-18T00:11:45.462Z,101056.25
2017-11-18T00:14:14.738Z,101047.59
2017-11-18T00:16:43.922Z,101038.98
2017-11-18T00:19:13.889Z,101032.36
2017-11-18T00:21:43.269Z,101036.83
2017-11-18T00:24:12.499Z,101037.63
2017-11-18T00:26:43.214Z,101036.55
2017-11-18T00:29:12.379Z,101033.58
2017-11-18T00:31:41.567Z,101034.34
2017-11-18T00:34:11.503Z,101029.47
2017-11-18T00:36:40.715Z,101029.08
2017-11-18T00:39:09.882Z,101029.19
2017-11-18T00:41:39.069Z,101028.92
2017-11-18T00:44:08.217Z,101030.13
2017-11-18T00:46:37.402Z,101029.48
2017-11-18T00:49:06.715Z,101033.64
2017-11-18T00:51:35.922Z,101037.28
2017-11-18T00:54:05.108Z,101034.97
2017-11-18T00:56:34.386Z,101030.25
2017-11-18T00:59:03.617Z,101034.16
2017-11-18T01:01:32.860Z,101042.80
2017-11-18T01:04:02.034Z,101041.95
2017-11-18T01:06:31.214Z,101035.49
2017-11-18T01:09:00.458Z,101032.66
2017-11-18T01:11:29.631Z,101028.09
2017-11-18T01:13:59.601Z,101027.95
2017-11-18T01:16:28.853Z,101020.41
2017-11-18T01:18:58.900Z,101014.76
2017-11-18T01:21:28.831Z,101021.22
2017-11-18T01:23:58.020Z,101010.42
2017-11-18T01:26:27.208Z,101007.98
2017-11-18T01:28:56.378Z,101002.73
2017-11-18T01:31:26.379Z,100998.56
2017-11-18T01:33:56.470Z,100991.66
2017-11-18T01:36:25.660Z,100988.43
2017-11-18T01:38:56.666Z,100983.86
2017-11-18T01:41:25.957Z,100989.77
2017-11-18T01:43:55.286Z,100980.88
2017-11-18T01:46:24.494Z,100983.00
2017-11-18T01:48:53.772Z,100978.83
2017-11-18T01:51:22.998Z,100973.42
2017-11-18T01:53:52.314Z,100967.91
2017-11-18T01:56:21.477Z,100970.73
2017-11-18T01:58:50.742Z,100965.33
2017-11-18T02:01:19.911Z,100956.05
2017-11-18T02:03:49.143Z,100956.42
2017-11-18T02:06:18.378Z,100950.09
2017-11-18T02:08:47.564Z,100962.10
2017-11-18T02:11:16.758Z,100950.36
2017-11-18T02:13:45.943Z,100950.25
2017-11-18T02:16:15.110Z,100935.97
2017-11-18T02:18:45.070Z,100936.20
2017-11-18T02:21:14.217Z,100931.23
2017-11-18T02:23:44.418Z,100924.23
2017-11-18T02:26:13.578Z,100929.89
2017-11-18T02:28:42.720Z,100908.87
2017-11-18T02:31:13.416Z,100910.34
2017-11-18T02:33:42.721Z,100901.34
2017-11-18T02:36:11.897Z,100894.75
2017-11-18T02:38:41.102Z,100890.98
2017-11-18T02:41:10.299Z,100902.28
2017-11-18T02:43:39.462Z,100890.44
2017-11-18T02:46:09.401Z,100892.05
2017-11-18T02:48:38.553Z,100883.03
2017-11-18T02:51:07.729Z,100882.09
2017-11-18T02:53:36.883Z,100877.25
2017-11-18T02:56:06.075Z,100874.16
2017-11-18T02:58:35.246Z,100877.39
2017-11-18T03:01:05.195Z,100873.88
2017-11-18T03:03:34.366Z,100877.78
2017-11-18T03:06:03.640Z,100875.92
2017-11-18T03:08:32.903Z,100874.17
2017-11-18T03:11:02.084Z,100868.94
2017-11-18T03:13:31.366Z,100858.30
2017-11-18T03:16:01.320Z,100867.58
2017-11-18T03:18:30.500Z,100862.22
2017-11-18T03:20:59.784Z,100863.04
2017-11-18T03:23:29.039Z,100867.63
2017-11-18T03:25:58.204Z,100864.54
2017-11-18T03:28:27.397Z,100861.84
2017-11-18T03:30:56.720Z,100855.78
2017-11-18T03:33:25.902Z,100850.53
2017-11-18T03:35:55.155Z,100856.31
2017-11-18T03:38:25.097Z,100846.08
2017-11-18T03:40:54.629Z,100846.62
2017-11-18T03:43:23.803Z,100844.22
2017-11-18T03:45:52.996Z,100843.67
2017-11-18T03:48:22.180Z,100848.66
2017-11-18T03:50:51.380Z,100845.55
2017-11-18T03:53:20.630Z,100838.41
2017-11-18T03:55:49.798Z,100843.27
2017-11-18T03:58:19.115Z,100833.98
2017-11-18T04:00:53.799Z,100828.74
2017-11-18T04:03:23.027Z,100835.47
2017-11-18T04:05:52.189Z,100836.00
2017-11-18T04:08:21.378Z,100839.92
2017-11-18T04:10:51.319Z,100843.83
2017-11-18T04:13:20.473Z,100838.42
2017-11-18T04:15:50.417Z,100842.33
2017-11-18T04:18:19.613Z,100831.97
2017-11-18T04:20:48.882Z,100832.48
2017-11-18T04:23:18.846Z,100830.73
2017-11-18T04:25:48.124Z,100825.36
2017-11-18T04:28:17.285Z,100819.15
2017-11-18T04:30:46.594Z,100817.26
2017-11-18T04:33:16.642Z,100821.17
2017-11-18T04:35:45.821Z,100811.59
2017-11-18T04:38:15.756Z,100808.34
2017-11-18T04:40:44.939Z,100791.78
2017-11-18T04:43:14.814Z,100785.73
2017-11-18T04:45:44.858Z,100787.17
2017-11-18T04:48:15.099Z,100774.66
2017-11-18T04:50:44.354Z,100770.88
2017-11-18T04:53:13.530Z,100774.80
2017-11-18T04:55:42.710Z,100761.72
2017-11-18T04:58:11.908Z,100760.23
2017-11-18T05:00:41.117Z,100759.16
2017-11-18T05:03:10.447Z,100764.02
2017-11-18T05:05:40.398Z,100754.59
2017-11-18T05:08:09.592Z,100752.69
2017-11-18T05:10:38.789Z,100742.56
2017-11-18T05:13:07.990Z,100737.98
2017-11-18T05:15:37.164Z,100736.78
2017-11-18T05:18:07.216Z,100739.88
2017-11-18T05:20:37.336Z,100737.97
2017-11-18T05:23:07.251Z,100737.44
2017-11-18T05:25:36.416Z,100736.62
2017-11-18T05:28:06.367Z,100732.05
2017-11-18T05:30:35.517Z,100730.70
2017-11-18T05:33:04.845Z,100726.23
2017-11-18T05:35:34.082Z,100731.49
2017-11-18T05:38:03.507Z,100732.18
2017-11-18T05:40:34.355Z,100722.31
2017-11-18T05:43:04.364Z,100718.55
2017-11-18T05:45:35.186Z,100716.00
2017-11-18T05:48:05.169Z,100716.54
2017-11-18T05:50:34.418Z,100707.53
2017-11-18T05:53:03.609Z,100704.67
2017-11-18T05:55:32.965Z,100701.83
2017-11-18T05:58:02.160Z,100707.61
2017-11-18T06:00:31.299Z,100700.56
2017-11-18T06:03:01.336Z,100708.63
2017-11-18T06:05:31.258Z,100703.36
2017-11-18T06:08:00.458Z,100696.34
2017-11-18T06:10:29.625Z,100698.48
2017-11-18T06:12:59.596Z,100705.83
2017-11-18T06:15:28.783Z,100698.39
2017-11-18T06:17:57.994Z,100699.70
2017-11-18T06:20:27.199Z,100697.41
2017-11-18T06:22:56.391Z,100691.52
2017-11-18T06:25:25.568Z,100685.86
2017-11-18T06:27:54.763Z,100683.96
2017-11-18T06:30:23.940Z,100669.39
2017-11-18T06:32:53.875Z,100678.03
2017-11-18T06:35:23.119Z,100678.72
2017-11-18T06:37:52.502Z,100666.44
2017-11-18T06:40:21.709Z,100667.13
2017-11-18T06:42:50.894Z,100681.67
2017-11-18T06:45:20.080Z,100675.88
2017-11-18T06:47:49.255Z,100672.89
2017-11-18T06:50:18.589Z,100672.20
2017-11-18T06:52:47.752Z,100671.50
2017-11-18T06:55:17.056Z,100670.17
2017-11-18T06:57:46.243Z,100665.88
2017-11-18T07:00:16.151Z,100669.23
2017-11-18T07:02:45.383Z,100668.25
2017-11-18T07:05:14.658Z,100674.05
2017-11-18T07:07:43.863Z,100667.57
2017-11-18T07:10:13.879Z,100670.81
2017-11-18T07:12:43.066Z,100668.38
2017-11-18T07:15:13.028Z,100670.58
2017-11-18T07:17:42.318Z,100673.65
2017-11-18T07:20:11.526Z,100677.95
2017-11-18T07:22:40.688Z,100673.25
2017-11-18T07:25:10.015Z,100674.03
2017-11-18T07:27:39.193Z,100657.84
2017-11-18T07:30:08.377Z,100669.18
2017-11-18T07:32:37.578Z,100675.95
2017-11-18T07:35:06.802Z,100675.80
2017-11-18T07:37:35.974Z,100666.91
2017-11-18T07:40:05.161Z,100673.05
2017-11-18T07:42:34.461Z,100673.45
2017-11-18T07:45:03.647Z,100674.44
2017-11-18T07:47:32.811Z,100667.55
2017-11-18T07:50:03.521Z,100657.96
2017-11-18T07:52:32.767Z,100663.91
2017-11-18T07:55:02.723Z,100650.03
2017-11-18T07:57:31.907Z,100650.19
2017-11-18T08:00:01.085Z,100641.27
2017-11-18T08:02:30.363Z,100647.58
2017-11-18T08:05:00.299Z,100644.88
2017-11-18T08:07:30.238Z,100636.55
2017-11-18T08:09:59.410Z,100637.62
2017-11-18T08:12:28.754Z,100630.88
2017-11-18T08:14:57.928Z,100629.23
2017-11-18T08:17:27.161Z,100629.90
2017-11-18T08:19:56.318Z,100618.42
2017-11-18T08:22:25.508Z,100622.61
2017-11-18T08:24:54.762Z,100633.11
2017-11-18T08:27:23.939Z,100619.63
2017-11-18T08:29:53.151Z,100614.23
2017-11-18T08:32:22.385Z,100621.62
2017-11-18T08:34:51.561Z,100620.94
2017-11-18T08:37:21.621Z,100617.70
2017-11-18T08:39:50.812Z,100622.95
2017-11-18T08:42:19.965Z,100616.31
2017-11-18T08:44:49.149Z,100599.30
2017-11-18T08:47:18.333Z,100603.77
2017-11-18T08:49:47.514Z,100606.08
2017-11-18T08:52:16.686Z,100604.58
2017-11-18T08:54:45.846Z,100595.80
2017-11-18T08:57:15.789Z,100601.95
2017-11-18T08:59:44.959Z,100599.34
2017-11-18T09:02:14.231Z,100585.15
2017-11-18T09:04:43.419Z,100591.64
2017-11-18T09:07:12.585Z,100580.66
2017-11-18T09:09:41.782Z,100582.81
2017-11-18T09:12:11.031Z,100572.56
2017-11-18T09:14:40.197Z,100571.36
2017-11-18T09:17:10.262Z,100558.78
2017-11-18T09:19:39.425Z,100566.91
2017-11-18T09:22:08.770Z,100553.78
2017-11-18T09:24:38.710Z,100549.59
2017-11-18T09:27:07.891Z,100540.03
2017-11-18T09:29:38.023Z,100543.39
2017-11-18T09:32:07.304Z,100540.19
2017-11-18T09:34:37.255Z,100539.20
2017-11-18T09:37:06.469Z,100535.66
2017-11-18T09:39:35.635Z,100538.31
2017-11-18T09:42:04.800Z,100522.37
2017-11-18T09:44:34.765Z,100533.42
2017-11-18T09:47:03.924Z,100531.45
2017-11-18T09:49:33.878Z,100542.11
2017-11-18T09:52:03.308Z,100534.66
2017-11-18T09:54:32.493Z,100538.06
2017-11-18T09:57:01.736Z,100535.22
2017-11-18T09:59:30.927Z,100533.86
2017-11-18T10:02:00.871Z,100538.70
2017-11-18T10:04:30.088Z,100533.75
2017-11-18T10:06:59.265Z,100538.86
2017-11-18T10:09:28.524Z,100542.02
2017-11-18T10:11:57.777Z,100535.20
2017-11-18T10:14:27.046Z,100530.80
2017-11-18T10:16:56.978Z,100523.55
2017-11-18T10:19:26.155Z,100530.98
2017-11-18T10:21:56.202Z,100525.30
2017-11-18T10:24:25.397Z,100514.80
2017-11-18T10:26:54.575Z,100511.05
2017-11-18T10:29:23.744Z,100505.69
2017-11-18T10:31:53.726Z,100503.94
2017-11-18T10:34:22.922Z,100500.84
2017-11-18T10:36:52.093Z,100497.05
2017-11-18T10:39:21.291Z,100494.02
2017-11-18T10:41:50.610Z,100486.56
2017-11-18T10:44:19.805Z,100486.57
2017-11-18T10:46:48.963Z,100471.83
2017-11-18T10:49:18.162Z,100465.88
2017-11-18T10:51:47.385Z,100462.12
2017-11-18T10:54:16.541Z,100447.89
2017-11-18T10:56:45.705Z,100454.34
2017-11-18T10:59:15.113Z,100448.13
2017-11-18T11:01:44.307Z,100442.13
2017-11-18T11:04:13.499Z,100439.24
2017-11-18T11:06:42.755Z,100438.28
2017-11-18T11:09:11.939Z,100431.64
2017-11-18T11:11:41.890Z,100435.14
2017-11-18T11:14:11.180Z,100430.39
2017-11-18T11:16:40.338Z,100430.48
2017-11-18T11:19:10.309Z,100422.88
2017-11-18T11:21:39.502Z,100412.27
2017-11-18T11:24:08.678Z,100391.83
2017-11-18T11:26:37.858Z,100389.59
2017-11-18T11:29:07.076Z,100399.25
2017-11-18T11:31:36.382Z,100405.55
2017-11-18T11:34:05.561Z,100394.78
2017-11-18T11:36:35.359Z,100395.52
2017-11-18T11:39:04.619Z,100393.06
2017-11-18T11:41:34.766Z,100381.00
2017-11-18T11:44:04.711Z,100379.20
2017-11-18T11:46:34.004Z,100381.50
2017-11-18T11:49:03.490Z,100368.95
2017-11-18T11:51:33.480Z,100356.01
2017-11-18T11:54:02.810Z,100356.86
2017-11-18T11:56:32.741Z,100371.77
2017-11-18T11:59:01.967Z,100361.61
2017-11-18T12:01:31.221Z,100365.91
2017-11-18T12:04:00.396Z,100359.23
2017-11-18T12:06:30.374Z,100357.73
2017-11-18T12:08:59.571Z,100355.06
2017-11-18T12:11:28.765Z,100353.41
2017-11-18T12:13:58.046Z,100347.70
2017-11-18T12:16:27.237Z,100334.09
2017-11-18T12:19:45.066Z,100337.52
2017-11-18T12:25:25.666Z,100339.07
2017-11-18T12:27:54.830Z,100347.73
2017-11-18T12:30:24.772Z,100332.72
2017-11-18T12:32:53.929Z,100329.78
2017-11-18T12:35:23.120Z,100329.85
2017-11-18T12:37:52.280Z,100326.84
2017-11-18T12:40:21.480Z,100316.98
2017-11-18T12:42:50.820Z,100312.08
2017-11-18T12:45:20.004Z,100311.75
2017-11-18T12:47:49.174Z,100308.12
2017-11-18T12:50:18.375Z,100297.19
2017-11-18T12:52:47.548Z,100302.20
2017-11-18T12:55:16.713Z,100304.14
2017-11-18T12:57:46.652Z,100290.28
2017-11-18T13:00:15.826Z,100290.56
2017-11-18T13:02:45.045Z,100282.88
2017-11-18T13:05:14.353Z,100282.58
2017-11-18T13:07:43.538Z,100281.47
2017-11-18T13:10:12.777Z,100263.81
2017-11-18T13:12:41.955Z,100253.55
2017-11-18T13:15:11.882Z,100266.30
2017-11-18T13:17:41.071Z,100249.73
2017-11-18T13:20:10.283Z,100260.89
2017-11-18T13:22:39.465Z,100255.82
2017-11-18T13:25:08.669Z,100254.78
2017-11-18T13:27:39.687Z,100257.30
2017-11-18T13:30:08.881Z,100256.19
2017-11-18T13:32:38.128Z,100248.63
2017-11-18T13:35:07.339Z,100253.42
2017-11-18T13:37:37.396Z,100254.99
2017-11-18T13:40:07.345Z,100248.66
2017-11-18T13:42:36.683Z,100258.13
2017-11-18T13:45:05.865Z,100253.98
2017-11-18T13:47:36.628Z,100244.88
2017-11-18T13:50:06.596Z,100241.38
2017-11-18T13:52:35.825Z,100247.58
2017-11-18T13:55:05.776Z,100254.37
2017-11-18T13:57:35.011Z,100252.92
2017-11-18T14:00:04.269Z,100252.38
2017-11-18T14:02:33.441Z,100254.42
2017-11-18T14:05:03.445Z,100248.77
2017-11-18T14:07:32.649Z,100247.00
2017-11-18T14:10:01.888Z,100253.94
2017-11-18T14:12:31.189Z,100251.38
2017-11-18T14:15:00.525Z,100251.75
2017-11-18T14:17:31.195Z,100244.78
2017-11-18T14:20:00.341Z,100247.09
2017-11-18T14:22:29.500Z,100252.70
2017-11-18T14:24:58.686Z,100255.25
2017-11-18T14:27:27.861Z,100255.89
2017-11-18T14:29:57.803Z,100259.23
2017-11-18T14:32:27.247Z,100246.42
2017-11-18T14:34:56.797Z,100248.10
2017-11-18T14:37:26.766Z,100238.22
2017-11-18T14:39:55.903Z,100235.45
2017-11-18T14:42:25.091Z,100231.40
2017-11-18T14:44:55.049Z,100222.50
2017-11-18T14:47:24.243Z,100220.65
2017-11-18T14:49:53.425Z,100229.16
2017-11-18T14:52:22.739Z,100227.34
2017-11-18T14:54:51.930Z,100218.62
2017-11-18T14:57:21.129Z,100226.28
2017-11-18T14:59:50.310Z,100230.48
2017-11-18T15:02:19.474Z,100232.92
2017-11-18T15:04:48.779Z,100227.87
2017-11-18T15:07:17.968Z,100229.34
2017-11-18T15:09:48.639Z,100221.89
2017-11-18T15:12:17.808Z,100207.05
2017-11-18T15:14:52.179Z,100206.15
2017-11-18T15:17:26.793Z,100207.77
2017-11-18T15:20:01.368Z,100203.31
2017-11-18T15:22:35.457Z,100200.92
2017-11-18T15:25:10.249Z,100197.23
2017-11-18T15:27:39.816Z,100185.23
2017-11-18T15:30:14.513Z,100195.67
2017-11-18T15:32:44.132Z,100192.40
2017-11-18T15:48:50.537Z,100180.64
2017-11-18T16:04:52.864Z,100286.88
2017-11-18T16:07:22.828Z,100279.20
2017-11-18T16:09:52.017Z,100264.77
2017-11-18T16:12:21.196Z,100277.44
2017-11-18T16:14:50.483Z,100268.02
2017-11-18T16:17:19.647Z,100271.19
2017-11-18T16:19:48.818Z,100260.80
2017-11-18T16:22:17.978Z,100269.50
2017-11-18T16:24:47.214Z,100270.28
2017-11-18T16:27:16.436Z,100267.28
2017-11-18T16:29:45.869Z,100272.77
2017-11-18T16:32:15.805Z,100272.57
2017-11-18T16:34:45.021Z,100269.56
2017-11-18T16:37:14.203Z,100276.08
2017-11-18T16:39:43.396Z,100272.09
2017-11-18T16:42:12.561Z,100268.13
2017-11-18T16:44:42.598Z,100265.66
2017-11-18T16:47:11.727Z,100268.16
2017-11-18T16:49:40.901Z,100270.93
2017-11-18T16:52:10.128Z,100266.95
2017-11-18T16:54:39.311Z,100263.91
2017-11-18T16:57:09.237Z,100261.45
2017-11-18T16:59:39.943Z,100266.77
2017-11-18T17:02:09.142Z,100259.02
2017-11-18T17:04:38.471Z,100261.95
2017-11-18T17:07:07.623Z,100252.08
2017-11-18T17:09:36.802Z,100256.56
2017-11-18T17:12:06.798Z,100259.41
2017-11-18T17:14:35.970Z,100254.77
2017-11-18T17:17:05.405Z,100260.42
2017-11-18T17:19:34.635Z,100250.44
2017-11-18T17:22:03.818Z,100253.14
2017-11-18T17:24:33.746Z,100241.66
2017-11-18T17:27:02.915Z,100243.31
2017-11-18T17:29:32.812Z,100244.55
2017-11-18T17:32:02.018Z,100251.34
2017-11-18T17:34:32.683Z,100251.44
2017-11-18T17:37:01.877Z,100244.53
2017-11-18T17:39:31.826Z,100237.91
2017-11-18T17:42:01.046Z,100248.30
2017-11-18T17:44:30.206Z,100235.66
2017-11-18T17:46:59.380Z,100241.95
2017-11-18T17:49:28.642Z,100238.66
2017-11-18T17:51:59.377Z,100234.61
2017-11-18T17:54:28.773Z,100233.72
2017-11-18T17:56:57.943Z,100235.26
2017-11-18T17:59:27.369Z,100236.36
2017-11-18T18:01:56.510Z,100232.96
2017-11-18T18:04:25.720Z,100238.62
2017-11-18T18:06:54.929Z,100244.25
2017-11-18T18:09:24.080Z,100243.52
2017-11-18T18:11:54.028Z,100235.06
2017-11-18T18:14:23.335Z,100227.97
2017-11-18T18:16:52.631Z,100220.94
2017-11-18T18:19:22.578Z,100218.18
2017-11-18T18:21:51.760Z,100202.41
2017-11-18T18:24:20.946Z,100209.16
2017-11-18T18:26:50.135Z,100204.31
2017-11-18T18:29:19.315Z,100193.62
2017-11-18T18:31:48.536Z,100191.66
2017-11-18T18:34:17.739Z,100193.95
2017-11-18T18:36:46.941Z,100188.87
2017-11-18T18:39:16.129Z,100180.02
2017-11-18T18:41:45.351Z,100178.91
2017-11-18T18:44:14.556Z,100194.39
2017-11-18T18:46:43.697Z,100199.95
2017-11-18T18:49:13.627Z,100192.16
2017-11-18T18:51:42.865Z,100183.58
2017-11-18T18:54:12.076Z,100177.41
2017-11-18T18:56:42.137Z,100179.66
2017-11-18T18:59:11.346Z,100188.41
2017-11-18T19:01:40.625Z,100194.30
2017-11-18T19:04:09.820Z,100190.59
2017-11-18T19:06:39.021Z,100186.95
2017-11-18T19:09:08.187Z,100182.71
2017-11-18T19:11:37.445Z,100182.41
2017-11-18T19:14:06.855Z,100192.44
2017-11-18T19:16:37.766Z,100193.58
2017-11-18T19:19:06.980Z,100195.42
2017-11-18T19:21:36.170Z,100195.44
2017-11-18T19:24:05.335Z,100195.42
2017-11-18T19:26:34.524Z,100197.48
2017-11-18T19:29:04.444Z,100191.79
2017-11-18T19:31:33.666Z,100192.44
2017-11-18T19:34:02.875Z,100196.86
2017-11-18T19:36:32.101Z,100194.56
2017-11-18T19:39:01.272Z,100194.12
2017-11-18T19:41:30.409Z,100193.12
2017-11-18T19:44:00.440Z,100193.44
2017-11-18T19:46:31.404Z,100195.94
2017-11-18T19:49:00.863Z,100199.31
2017-11-18T19:51:30.951Z,100193.12
2017-11-18T19:54:00.151Z,100167.52
2017-11-18T19:56:29.477Z,100166.21
2017-11-18T19:58:59.525Z,100172.91
2017-11-18T20:01:29.458Z,100164.66
2017-11-18T20:03:58.636Z,100162.34
2017-11-18T20:06:27.847Z,100163.80
2017-11-18T20:08:57.048Z,100157.05
2017-11-18T20:11:26.226Z,100169.91
2017-11-18T20:13:55.418Z,100167.91
2017-11-18T20:16:24.625Z,100175.05
2017-11-18T20:18:53.807Z,100167.53
2017-11-18T20:21:23.823Z,100168.03
2017-11-18T20:23:53.739Z,100173.57
2017-11-18T20:26:22.951Z,100164.13
2017-11-18T20:28:52.173Z,100162.16
2017-11-18T20:31:21.450Z,100156.33
2017-11-18T20:33:51.381Z,100158.05
2017-11-18T20:36:20.594Z,100155.13
2017-11-18T20:38:49.779Z,100150.03
2017-11-18T20:41:19.056Z,100145.83
2017-11-18T20:43:48.366Z,100148.78
2017-11-18T20:46:17.666Z,100155.67
2017-11-18T20:48:46.891Z,100153.77
2017-11-18T20:51:16.058Z,100143.39
2017-11-18T20:53:45.258Z,100144.44
2017-11-18T20:56:14.435Z,100150.78
2017-11-18T20:58:43.592Z,100146.56
2017-11-18T21:01:14.273Z,100146.27
2017-11-18T21:03:43.470Z,100151.06
2017-11-18T21:06:12.668Z,100157.00
2017-11-18T21:08:42.705Z,100153.48
2017-11-18T21:11:11.904Z,100155.66
2017-11-18T21:13:41.080Z,100158.35
2017-11-18T21:16:10.398Z,100150.95
2017-11-18T21:18:39.632Z,100144.52
2017-11-18T21:21:10.385Z,100132.70
2017-11-18T21:23:40.350Z,100132.63
2017-11-18T21:26:09.551Z,100139.19
2017-11-18T21:28:38.671Z,100137.86
2017-11-18T21:31:07.881Z,100134.77
2017-11-18T21:33:37.940Z,100132.66
2017-11-18T21:36:07.109Z,100120.08
2017-11-18T21:38:37.256Z,100115.39
2017-11-18T21:41:06.520Z,100121.56
2017-11-18T21:43:36.475Z,100117.86
2017-11-18T21:46:05.721Z,100120.14
2017-11-18T21:48:34.942Z,100112.31
2017-11-18T21:51:04.887Z,100107.75
2017-11-18T21:53:34.077Z,100106.92
2017-11-18T21:56:03.375Z,100112.59
2017-11-18T21:58:32.621Z,100116.81
2017-11-18T22:01:01.893Z,100120.86
2017-11-18T22:03:31.183Z,100123.88
2017-11-18T22:06:00.381Z,100127.63
2017-11-18T22:08:29.560Z,100124.08
2017-11-18T22:10:58.981Z,100119.34
2017-11-18T22:13:28.151Z,100119.23
2017-11-18T22:15:57.358Z,100117.22
2017-11-18T22:18:26.538Z,100118.31
2017-11-18T22:20:55.760Z,100120.02
2017-11-18T22:23:25.086Z,100114.37
2017-11-18T22:25:55.238Z,100114.06
2017-11-18T22:28:25.186Z,100104.02
2017-11-18T22:30:54.385Z,100100.52
2017-11-18T22:33:23.605Z,100110.97
2017-11-18T22:35:53.118Z,100105.59
2017-11-18T22:38:22.295Z,100091.30
2017-11-18T22:40:51.558Z,100074.80
2017-11-18T22:43:21.516Z,100081.45
2017-11-18T22:45:50.823Z,100092.06
2017-11-18T22:48:20.013Z,100099.03
2017-11-18T22:50:49.456Z,100102.03
2017-11-18T22:53:20.155Z,100105.22
2017-11-18T22:55:49.281Z,100109.84
2017-11-18T22:58:18.465Z,100095.26
2017-11-18T23:00:47.642Z,100087.07
2017-11-18T23:03:16.835Z,100089.81
2017-11-18T23:05:46.006Z,100086.69
2017-11-18T23:08:15.194Z,100089.88
2017-11-18T23:10:44.387Z,100102.42
2017-11-18T23:13:14.350Z,100107.66
2017-11-18T23:15:43.666Z,100103.70
2017-11-18T23:18:12.863Z,100101.72
2017-11-18T23:20:42.035Z,100102.06
2017-11-18T23:23:11.197Z,100093.27
2017-11-18T23:25:40.412Z,100088.48
2017-11-18T23:28:09.617Z,100078.01
2017-11-18T23:30:38.799Z,100087.86
2017-11-18T23:33:07.985Z,100096.10
2017-11-18T23:35:37.193Z,100092.48
2017-11-18T23:38:06.399Z,100097.08
2017-11-18T23:40:36.337Z,100107.38
2017-11-18T23:43:05.507Z,100090.38
2017-11-18T23:45:34.708Z,100081.23
2017-11-18T23:48:03.882Z,100080.53
2017-11-18T23:50:33.054Z,100065.33
2017-11-18T23:53:03.017Z,100049.52
2017-11-18T23:55:32.212Z,100061.81
2017-11-18T23:58:01.401Z,100056.49
